createdAt,value
2023-02-02T00:02:28.344Z,99217.91
2023-02-02T00:15:14.089Z,99207.97
2023-02-02T00:21:40.003Z,99306.63
2023-02-02T00:27:49.496Z,99305.50
2023-02-02T00:34:04.044Z,99169.31
2023-02-02T00:40:30.744Z,99189.53
2023-02-02T00:46:51.338Z,99265.38
2023-02-02T01:12:14.936Z,99178.00
2023-02-02T01:18:27.088Z,99181.41
2023-02-02T01:24:28.895Z,99195.44
2023-02-02T01:30:31.681Z,99269.34
2023-02-02T01:36:43.253Z,99287.50
2023-02-02T01:42:50.408Z,99270.22
2023-02-02T01:48:59.175Z,99267.09
2023-02-02T01:55:09.693Z,99268.22
2023-02-02T02:01:23.428Z,99257.53
2023-02-02T02:07:25.655Z,99202.03
2023-02-02T02:13:48.201Z,99180.69
2023-02-02T02:20:33.855Z,99281.59
2023-02-02T02:26:55.428Z,99298.91
2023-02-02T02:33:07.935Z,99174.06
2023-02-02T02:39:34.454Z,99297.19
2023-02-02T02:45:37.918Z,99176.31
2023-02-02T02:58:06.623Z,99302.25
2023-02-02T03:04:38.601Z,99315.22
2023-02-02T03:10:49.035Z,99296.38
2023-02-02T03:16:54.428Z,99296.63
2023-02-02T03:22:59.912Z,99183.22
2023-02-02T03:29:10.690Z,99291.28
2023-02-02T03:35:19.863Z,99185.53
2023-02-02T03:41:22.398Z,99277.22
2023-02-02T03:47:24.826Z,99268.94
2023-02-02T03:53:27.330Z,99247.72
2023-02-02T03:59:29.774Z,99240.34
2023-02-02T04:05:32.256Z,99150.59
2023-02-02T04:11:34.694Z,99241.25
2023-02-02T04:17:38.154Z,99270.75
2023-02-02T04:23:42.885Z,99258.38
2023-02-02T04:29:45.077Z,99257.22
2023-02-02T04:35:49.991Z,99183.53
2023-02-02T04:41:54.055Z,99242.81
2023-02-02T04:48:09.478Z,99154.31
2023-02-02T04:54:14.964Z,99159.59
2023-02-02T05:00:17.461Z,99264.53
2023-02-02T05:06:26.895Z,99255.59
2023-02-02T05:12:32.433Z,99077.19
2023-02-02T05:18:38.540Z,99258.66
2023-02-02T05:24:40.433Z,99244.94
2023-02-02T05:30:42.898Z,99273.06
2023-02-02T05:36:45.345Z,99272.72
2023-02-02T05:42:49.846Z,99276.81
2023-02-02T05:48:59.813Z,99284.66
2023-02-02T05:55:06.769Z,99282.09
2023-02-02T06:01:10.060Z,99191.53
2023-02-02T06:07:16.404Z,99298.44
2023-02-02T06:13:19.196Z,99256.16
2023-02-02T06:19:21.687Z,99287.59
2023-02-02T06:25:30.153Z,99188.00
2023-02-02T06:31:32.718Z,99169.19
2023-02-02T06:37:42.457Z,99227.66
2023-02-02T06:43:52.626Z,99295.31
2023-02-02T06:49:55.104Z,99294.03
2023-02-02T06:56:01.563Z,99292.19
2023-02-02T07:02:04.001Z,99291.41
2023-02-02T07:08:07.439Z,99288.63
2023-02-02T07:14:12.940Z,99172.81
2023-02-02T07:20:18.435Z,99215.66
2023-02-02T07:26:22.922Z,99271.59
2023-02-02T07:32:28.348Z,99218.44
2023-02-02T07:38:32.573Z,99219.59
2023-02-02T07:44:36.299Z,99206.53
2023-02-02T07:50:40.769Z,99280.59
2023-02-02T07:56:43.221Z,99270.28
2023-02-02T08:02:59.099Z,99134.63
2023-02-02T08:09:03.245Z,99269.31
2023-02-02T08:15:12.670Z,98970.06
2023-02-02T08:21:22.874Z,99268.84
2023-02-02T08:34:21.765Z,99236.69
2023-02-02T08:40:33.240Z,99152.66
2023-02-02T08:47:00.578Z,99083.75
2023-02-02T08:53:02.905Z,99167.97
2023-02-02T08:59:24.069Z,99147.75
2023-02-02T09:05:40.528Z,99158.69
2023-02-02T09:18:12.174Z,99170.78
2023-02-02T09:24:34.329Z,98978.91
2023-02-02T09:31:32.254Z,98979.72
2023-02-02T09:44:31.369Z,99084.09
2023-02-02T09:51:03.969Z,99259.44
2023-02-02T09:57:35.659Z,99174.56
2023-02-02T10:10:56.077Z,99166.41
2023-02-02T10:17:37.797Z,98977.00
2023-02-02T10:24:20.458Z,99246.59
2023-02-02T10:31:00.935Z,99251.84
2023-02-02T10:45:11.702Z,99242.78
2023-02-02T10:51:53.736Z,99240.69
2023-02-02T10:59:04.225Z,98998.19
2023-02-02T11:12:39.741Z,99221.69
2023-02-02T11:18:57.327Z,99226.53
2023-02-02T11:25:55.975Z,99227.03
2023-02-02T11:32:41.559Z,99222.31
2023-02-02T11:39:06.761Z,99182.59
2023-02-02T11:53:12.497Z,98951.69
2023-02-02T12:06:46.032Z,98991.72
2023-02-02T12:13:22.885Z,99244.88
2023-02-02T12:20:15.347Z,99239.50
2023-02-02T12:27:00.296Z,99087.66
2023-02-02T12:41:16.733Z,99252.72
2023-02-02T12:54:52.214Z,99251.03
2023-02-02T13:08:21.392Z,99255.09
2023-02-02T13:15:12.504Z,99046.38
2023-02-02T13:28:03.804Z,99104.91
2023-02-02T13:35:21.536Z,99280.41
2023-02-02T13:41:31.360Z,99026.03
2023-02-02T13:47:57.319Z,99301.66
2023-02-02T13:55:14.540Z,99304.84
2023-02-02T14:01:27.287Z,99321.22
2023-02-02T14:07:57.916Z,99324.91
2023-02-02T14:14:41.465Z,99339.88
2023-02-02T14:34:14.554Z,99279.22
2023-02-02T14:40:25.644Z,99354.78
2023-02-02T14:46:57.074Z,99256.47
2023-02-02T14:53:25.560Z,99320.03
2023-02-02T14:59:42.676Z,99377.19
2023-02-02T15:06:05.242Z,99371.56
2023-02-02T15:12:45.614Z,99297.72
2023-02-02T15:19:13.821Z,99330.88
2023-02-02T15:25:46.794Z,99328.38
2023-02-02T15:32:04.046Z,99399.75
2023-02-02T15:39:14.493Z,99384.59
2023-02-02T15:45:14.131Z,99306.25
2023-02-02T15:51:43.904Z,99411.25
2023-02-02T15:59:04.751Z,99378.50
2023-02-02T16:04:53.830Z,99395.78
2023-02-02T16:11:24.039Z,99214.72
2023-02-02T16:17:42.049Z,99456.38
2023-02-02T16:23:52.541Z,99370.84
2023-02-02T16:30:24.534Z,99470.88
2023-02-02T16:36:40.200Z,99465.00
2023-02-02T16:43:12.888Z,99475.91
2023-02-02T16:56:04.507Z,99442.94
2023-02-02T17:02:25.452Z,99493.41
2023-02-02T17:08:56.263Z,99490.00
2023-02-02T17:15:14.743Z,99503.16
2023-02-02T17:21:26.079Z,99506.09
2023-02-02T17:27:50.629Z,99484.59
2023-02-02T17:40:38.686Z,99432.22
2023-02-02T17:46:56.842Z,99479.41
2023-02-02T17:53:36.803Z,99193.13
2023-02-02T17:59:47.518Z,99478.63
2023-02-02T18:12:36.928Z,99446.25
2023-02-02T18:18:57.218Z,99446.28
2023-02-02T18:25:14.772Z,99491.03
2023-02-02T18:37:56.046Z,99517.66
2023-02-02T18:43:57.860Z,99455.00
2023-02-02T18:49:59.674Z,99486.00
2023-02-02T18:56:14.106Z,99429.56
2023-02-02T19:03:06.316Z,99529.38
2023-02-02T19:15:35.553Z,99430.50
2023-02-02T19:21:46.982Z,99284.06
2023-02-02T19:27:49.258Z,99495.03
2023-02-02T19:34:18.173Z,99508.00
2023-02-02T19:40:45.789Z,99408.03
2023-02-02T19:47:06.328Z,99527.97
2023-02-02T19:53:32.858Z,99514.31
2023-02-02T19:59:56.487Z,99421.97
2023-02-02T20:05:58.907Z,99510.22
2023-02-02T20:12:08.464Z,99512.78
2023-02-02T20:18:28.927Z,99488.22
2023-02-02T20:38:09.040Z,99266.56
2023-02-02T20:44:27.575Z,99518.34
2023-02-02T20:50:38.062Z,99415.88
2023-02-02T21:09:37.506Z,99439.53
2023-02-02T21:22:57.728Z,99540.34
2023-02-02T21:29:00.960Z,99584.81
2023-02-02T21:35:07.449Z,99558.38
2023-02-02T21:41:26.563Z,99530.78
2023-02-02T21:48:13.893Z,99273.84
2023-02-02T21:54:26.115Z,99643.06
2023-02-02T22:00:38.397Z,99647.72
2023-02-02T22:06:56.315Z,99603.31
2023-02-02T22:12:59.578Z,99661.50
2023-02-02T22:19:09.536Z,99509.88
2023-02-02T22:25:32.628Z,99670.28
2023-02-02T22:31:42.684Z,99662.34
2023-02-02T22:37:47.178Z,99674.72
2023-02-02T22:43:56.085Z,99676.19
2023-02-02T22:49:58.505Z,99611.16
2023-02-02T22:56:03.968Z,99588.28
2023-02-02T23:02:19.066Z,99411.44
2023-02-02T23:08:21.978Z,99586.84
2023-02-02T23:15:02.353Z,99602.13
2023-02-02T23:21:05.043Z,99697.03
2023-02-02T23:27:07.501Z,99709.06
2023-02-02T23:33:09.930Z,99677.97
2023-02-02T23:39:13.417Z,99722.03
2023-02-02T23:45:17.874Z,99713.44
2023-02-02T23:57:43.961Z,99726.78
